DAL1196 KBZN-KLAX
Flight info
| Callsign | DAL1196 |
|---|---|
| Flight time | 2h 17m |
| Altitude | 35000 |
| Route | BGSKY2 DBS PROXI Q842 WINEN Q73 HAKMN ANJLL4 |
| Aircraft | A320/M-SDE3FGHIRWY/LB1 |
Departure
| Time | 2026-04-22 22:03 |
|---|---|
| Airport | Bozeman Yellowstone International Airport (KBZN) |
Arrival
| Time | 2026-04-23 00:21 |
|---|---|
| Airport | Los Angeles International Airport (KLAX) |
| Time | Latitude | Longitude | Altitude | Speed | Heading |
|---|---|---|---|---|---|
| 2026-04-22 21:33 | 45.77884 | -111.16045 | 4481 ft | 0 kts | 225° |
| 2026-04-22 21:46 | 45.77884 | -111.16044 | 4481 ft | 2 kts | 225° |
| 2026-04-22 21:47 | 45.77895 | -111.16027 | 4481 ft | 2 kts | 225° |
| 2026-04-22 21:47 | 45.77907 | -111.16011 | 4483 ft | 2 kts | 225° |
| 2026-04-22 21:47 | 45.77918 | -111.15994 | 4481 ft | 2 kts | 199° |
| 2026-04-22 21:47 | 45.77934 | -111.15992 | 4483 ft | 2 kts | 145° |
| 2026-04-22 21:48 | 45.77939 | -111.15997 | 4484 ft | 0 kts | 138° |
| 2026-04-22 21:55 | 45.77938 | -111.15996 | 4481 ft | 0 kts | 138° |
| 2026-04-22 21:55 | 45.77930 | -111.15985 | 4486 ft | 6 kts | 137° |
| 2026-04-22 21:56 | 45.77903 | -111.15945 | 4481 ft | 5 kts | 133° |
| 2026-04-22 21:56 | 45.77867 | -111.15891 | 4481 ft | 10 kts | 136° |
| 2026-04-22 21:56 | 45.77823 | -111.15832 | 4481 ft | 8 kts | 137° |
| 2026-04-22 21:56 | 45.77821 | -111.15777 | 4481 ft | 6 kts | 55° |
| 2026-04-22 21:57 | 45.77839 | -111.15720 | 4481 ft | 7 kts | 98° |
| 2026-04-22 21:57 | 45.77812 | -111.15671 | 4481 ft | 5 kts | 137° |
| 2026-04-22 21:57 | 45.77771 | -111.15614 | 4484 ft | 12 kts | 135° |
| 2026-04-22 21:57 | 45.77706 | -111.15521 | 4481 ft | 13 kts | 135° |
| 2026-04-22 21:58 | 45.77645 | -111.15433 | 4483 ft | 12 kts | 137° |
| 2026-04-22 21:58 | 45.77589 | -111.15359 | 4481 ft | 10 kts | 137° |
| 2026-04-22 21:58 | 45.77545 | -111.15299 | 4481 ft | 8 kts | 137° |
| 2026-04-22 21:58 | 45.77511 | -111.15254 | 4481 ft | 5 kts | 137° |
| 2026-04-22 21:59 | 45.77478 | -111.15209 | 4481 ft | 7 kts | 136° |
| 2026-04-22 21:59 | 45.77445 | -111.15161 | 4481 ft | 9 kts | 135° |
| 2026-04-22 21:59 | 45.77395 | -111.15091 | 4484 ft | 9 kts | 136° |
| 2026-04-22 21:59 | 45.77353 | -111.15034 | 4481 ft | 7 kts | 136° |
| 2026-04-22 22:00 | 45.77322 | -111.14989 | 4484 ft | 7 kts | 136° |
| 2026-04-22 22:00 | 45.77282 | -111.14934 | 4481 ft | 9 kts | 136° |
| 2026-04-22 22:00 | 45.77228 | -111.14859 | 4481 ft | 12 kts | 136° |
| 2026-04-22 22:00 | 45.77158 | -111.14762 | 4482 ft | 15 kts | 136° |
| 2026-04-22 22:01 | 45.77081 | -111.14654 | 4484 ft | 16 kts | 136° |
| 2026-04-22 22:01 | 45.77001 | -111.14544 | 4481 ft | 16 kts | 136° |
| 2026-04-22 22:01 | 45.76922 | -111.14435 | 4483 ft | 11 kts | 136° |
| 2026-04-22 22:01 | 45.76874 | -111.14368 | 4484 ft | 8 kts | 135° |
| 2026-04-22 22:02 | 45.76855 | -111.14307 | 4481 ft | 7 kts | 81° |
| 2026-04-22 22:02 | 45.76898 | -111.14228 | 4481 ft | 13 kts | 46° |
| 2026-04-22 22:02 | 45.76966 | -111.14140 | 4481 ft | 13 kts | 20° |
| 2026-04-22 22:02 | 45.77055 | -111.14209 | 4480 ft | 25 kts | 316° |
| 2026-04-22 22:03 | 45.77367 | -111.14642 | 4483 ft | 97 kts | 316° |
| 2026-04-22 22:03 | 45.77993 | -111.15515 | 4482 ft | 152 kts | 315° |
| 2026-04-22 22:03 | 45.78871 | -111.16626 | 4767 ft | 170 kts | 311° |
| 2026-04-22 22:03 | 45.79759 | -111.17693 | 5582 ft | 166 kts | 307° |
| 2026-04-22 22:04 | 45.80586 | -111.18854 | 6152 ft | 168 kts | 306° |
| 2026-04-22 22:04 | 45.81375 | -111.20010 | 6768 ft | 159 kts | 303° |
| 2026-04-22 22:04 | 45.82209 | -111.21238 | 6994 ft | 187 kts | 308° |
| 2026-04-22 22:04 | 45.83182 | -111.22688 | 7154 ft | 216 kts | 308° |
| 2026-04-22 22:05 | 45.84289 | -111.24318 | 7283 ft | 241 kts | 308° |
| 2026-04-22 22:05 | 45.85503 | -111.26071 | 7800 ft | 251 kts | 308° |
| 2026-04-22 22:05 | 45.86755 | -111.27843 | 8531 ft | 254 kts | 310° |
| 2026-04-22 22:05 | 45.88022 | -111.29621 | 9339 ft | 256 kts | 309° |
| 2026-04-22 22:06 | 45.89298 | -111.31424 | 10045 ft | 258 kts | 304° |
| 2026-04-22 22:06 | 45.90180 | -111.33585 | 10678 ft | 249 kts | 278° |
| 2026-04-22 22:06 | 45.90232 | -111.36015 | 11323 ft | 243 kts | 252° |
| 2026-04-22 22:06 | 45.89509 | -111.38147 | 12066 ft | 236 kts | 226° |
| 2026-04-22 22:07 | 45.88381 | -111.39836 | 12687 ft | 242 kts | 225° |
| 2026-04-22 22:07 | 45.87179 | -111.41582 | 13177 ft | 253 kts | 225° |
| 2026-04-22 22:07 | 45.85885 | -111.43454 | 13349 ft | 275 kts | 224° |
| 2026-04-22 22:07 | 45.84482 | -111.45485 | 13479 ft | 298 kts | 225° |
| 2026-04-22 22:08 | 45.82865 | -111.47518 | 13592 ft | 320 kts | 216° |
| 2026-04-22 22:08 | 45.80895 | -111.49196 | 13731 ft | 339 kts | 205° |
| 2026-04-22 22:08 | 45.78689 | -111.50548 | 14118 ft | 349 kts | 203° |
| 2026-04-22 22:08 | 45.76446 | -111.51920 | 14720 ft | 352 kts | 203° |
| 2026-04-22 22:09 | 45.74183 | -111.53317 | 15294 ft | 356 kts | 203° |
| 2026-04-22 22:09 | 45.71906 | -111.54725 | 15898 ft | 359 kts | 204° |
| 2026-04-22 22:09 | 45.69607 | -111.56145 | 16490 ft | 361 kts | 204° |
| 2026-04-22 22:09 | 45.67289 | -111.57574 | 17018 ft | 366 kts | 203° |
| 2026-04-22 22:10 | 45.64941 | -111.59023 | 17601 ft | 369 kts | 203° |
| 2026-04-22 22:10 | 45.62564 | -111.60485 | 18082 ft | 375 kts | 204° |
| 2026-04-22 22:10 | 45.60139 | -111.61977 | 18473 ft | 382 kts | 204° |
| 2026-04-22 22:10 | 45.57684 | -111.63488 | 18963 ft | 386 kts | 204° |
| 2026-04-22 22:11 | 45.55204 | -111.65013 | 19486 ft | 390 kts | 204° |
| 2026-04-22 22:11 | 45.52706 | -111.66544 | 20033 ft | 392 kts | 204° |
| 2026-04-22 22:11 | 45.50187 | -111.68082 | 20572 ft | 395 kts | 204° |
| 2026-04-22 22:11 | 45.47652 | -111.69629 | 21134 ft | 396 kts | 205° |
| 2026-04-22 22:12 | 45.45124 | -111.71171 | 21767 ft | 395 kts | 204° |
| 2026-04-22 22:12 | 45.42591 | -111.72717 | 22258 ft | 398 kts | 205° |
| 2026-04-22 22:12 | 45.40043 | -111.74272 | 22746 ft | 400 kts | 204° |
| 2026-04-22 22:12 | 45.37476 | -111.75835 | 23198 ft | 402 kts | 205° |
| 2026-04-22 22:13 | 45.34889 | -111.77404 | 23545 ft | 406 kts | 204° |
| 2026-04-22 22:13 | 45.32280 | -111.78985 | 23830 ft | 411 kts | 205° |
| 2026-04-22 22:13 | 45.29590 | -111.80504 | 23986 ft | 421 kts | 200° |
| 2026-04-22 22:13 | 45.26732 | -111.81567 | 24276 ft | 427 kts | 196° |
| 2026-04-22 22:14 | 45.23840 | -111.82554 | 24647 ft | 427 kts | 196° |
| 2026-04-22 22:14 | 45.20955 | -111.83530 | 25093 ft | 426 kts | 196° |
| 2026-04-22 22:14 | 45.18111 | -111.84490 | 25430 ft | 427 kts | 197° |
| 2026-04-22 22:14 | 45.15209 | -111.85473 | 25756 ft | 429 kts | 196° |
| 2026-04-22 22:15 | 45.12299 | -111.86461 | 26090 ft | 431 kts | 196° |
| 2026-04-22 22:15 | 45.09371 | -111.87456 | 26390 ft | 434 kts | 196° |
| 2026-04-22 22:15 | 45.06428 | -111.88459 | 26707 ft | 436 kts | 195° |
| 2026-04-22 22:15 | 45.03471 | -111.89464 | 27018 ft | 438 kts | 196° |
| 2026-04-22 22:16 | 45.00504 | -111.90469 | 27393 ft | 439 kts | 195° |
| 2026-04-22 22:16 | 44.97531 | -111.91472 | 27718 ft | 441 kts | 197° |
| 2026-04-22 22:16 | 44.94525 | -111.92488 | 27856 ft | 448 kts | 196° |
| 2026-04-22 22:16 | 44.91471 | -111.93516 | 27997 ft | 453 kts | 197° |
| 2026-04-22 22:17 | 44.88392 | -111.94548 | 28233 ft | 457 kts | 197° |
| 2026-04-22 22:17 | 44.85296 | -111.95583 | 28479 ft | 459 kts | 196° |
| 2026-04-22 22:17 | 44.82180 | -111.96627 | 28727 ft | 461 kts | 196° |
| 2026-04-22 22:17 | 44.79055 | -111.97678 | 29045 ft | 461 kts | 196° |
| 2026-04-22 22:18 | 44.75934 | -111.98728 | 29360 ft | 461 kts | 196° |
| 2026-04-22 22:18 | 44.73867 | -111.99425 | 29536 ft | 461 kts | 196° |
| 2026-04-22 22:18 | 44.70747 | -112.00472 | 29878 ft | 461 kts | 196° |
| 2026-04-22 22:18 | 44.67636 | -112.01512 | 30154 ft | 460 kts | 196° |
| 2026-04-22 22:19 | 44.64521 | -112.02548 | 30432 ft | 459 kts | 195° |
| 2026-04-22 22:19 | 44.61415 | -112.03577 | 30685 ft | 459 kts | 195° |
| 2026-04-22 22:19 | 44.58289 | -112.04618 | 30805 ft | 464 kts | 196° |
| 2026-04-22 22:19 | 44.55138 | -112.05669 | 30945 ft | 467 kts | 196° |
| 2026-04-22 22:20 | 44.50898 | -112.07084 | 31228 ft | 468 kts | 196° |
| 2026-04-22 22:20 | 44.48802 | -112.07785 | 31390 ft | 468 kts | 195° |
| 2026-04-22 22:20 | 44.45635 | -112.08841 | 31689 ft | 467 kts | 195° |
| 2026-04-22 22:20 | 44.42483 | -112.09885 | 32023 ft | 464 kts | 195° |
| 2026-04-22 22:21 | 44.39348 | -112.10920 | 32362 ft | 462 kts | 195° |
| 2026-04-22 22:21 | 44.36232 | -112.11946 | 32738 ft | 458 kts | 195° |
| 2026-04-22 22:21 | 44.33149 | -112.12958 | 33173 ft | 453 kts | 195° |
| 2026-04-22 22:21 | 44.30093 | -112.13960 | 33571 ft | 449 kts | 195° |
| 2026-04-22 22:22 | 44.27061 | -112.14958 | 33924 ft | 446 kts | 195° |
| 2026-04-22 22:22 | 44.24085 | -112.15940 | 34187 ft | 445 kts | 195° |
| 2026-04-22 22:22 | 44.21074 | -112.16935 | 34402 ft | 445 kts | 195° |
| 2026-04-22 22:22 | 44.18066 | -112.17927 | 34617 ft | 444 kts | 195° |
| 2026-04-22 22:23 | 44.15059 | -112.18913 | 34749 ft | 444 kts | 195° |
| 2026-04-22 22:23 | 44.09038 | -112.20849 | 34781 ft | 445 kts | 192° |
| 2026-04-22 22:24 | 44.02878 | -112.21874 | 34784 ft | 446 kts | 188° |
| 2026-04-22 22:24 | 43.96711 | -112.22818 | 34780 ft | 446 kts | 188° |
| 2026-04-22 22:25 | 43.90559 | -112.23760 | 34798 ft | 443 kts | 190° |
| 2026-04-22 22:25 | 43.84439 | -112.24710 | 34807 ft | 442 kts | 189° |
| 2026-04-22 22:26 | 43.78320 | -112.25650 | 34813 ft | 443 kts | 189° |
| 2026-04-22 22:26 | 43.72197 | -112.26583 | 34806 ft | 442 kts | 190° |
| 2026-04-22 22:27 | 43.66086 | -112.27519 | 34831 ft | 441 kts | 189° |
| 2026-04-22 22:27 | 43.59979 | -112.28448 | 34845 ft | 441 kts | 189° |
| 2026-04-22 22:28 | 43.53882 | -112.29374 | 34889 ft | 440 kts | 190° |
| 2026-04-22 22:28 | 43.47799 | -112.30295 | 34895 ft | 440 kts | 189° |
| 2026-04-22 22:29 | 43.41713 | -112.31218 | 34892 ft | 440 kts | 190° |
| 2026-04-22 22:29 | 43.35632 | -112.32141 | 34895 ft | 440 kts | 190° |
| 2026-04-22 22:30 | 43.29549 | -112.33059 | 34893 ft | 439 kts | 189° |
| 2026-04-22 22:30 | 43.23475 | -112.33974 | 34898 ft | 439 kts | 190° |
| 2026-04-22 22:31 | 43.17407 | -112.34886 | 34914 ft | 439 kts | 190° |
| 2026-04-22 22:31 | 43.11334 | -112.35799 | 34913 ft | 439 kts | 189° |
| 2026-04-22 22:32 | 43.05304 | -112.36709 | 34925 ft | 439 kts | 190° |
| 2026-04-22 22:32 | 42.99223 | -112.37616 | 34923 ft | 440 kts | 190° |
| 2026-04-22 22:33 | 42.93142 | -112.38526 | 34924 ft | 440 kts | 190° |
| 2026-04-22 22:33 | 42.87064 | -112.39431 | 34943 ft | 439 kts | 191° |
| 2026-04-22 22:34 | 42.80992 | -112.40333 | 34954 ft | 439 kts | 190° |
| 2026-04-22 22:34 | 42.74923 | -112.41220 | 34942 ft | 439 kts | 190° |
| 2026-04-22 22:35 | 42.68852 | -112.42121 | 34934 ft | 439 kts | 190° |
| 2026-04-22 22:35 | 42.62768 | -112.43027 | 34938 ft | 440 kts | 190° |
| 2026-04-22 22:36 | 42.56680 | -112.43937 | 34943 ft | 440 kts | 190° |
| 2026-04-22 22:36 | 42.50584 | -112.44834 | 34951 ft | 441 kts | 190° |
| 2026-04-22 22:37 | 42.44488 | -112.45726 | 34957 ft | 441 kts | 190° |
| 2026-04-22 22:37 | 42.38424 | -112.46610 | 34951 ft | 442 kts | 189° |
| 2026-04-22 22:38 | 42.32311 | -112.47502 | 34945 ft | 442 kts | 190° |
| 2026-04-22 22:38 | 42.26195 | -112.48396 | 34950 ft | 442 kts | 190° |
| 2026-04-22 22:39 | 42.20071 | -112.49290 | 34958 ft | 443 kts | 190° |
| 2026-04-22 22:39 | 42.13950 | -112.50181 | 34954 ft | 442 kts | 190° |
| 2026-04-22 22:40 | 42.07833 | -112.51072 | 34962 ft | 442 kts | 190° |
| 2026-04-22 22:40 | 42.01721 | -112.51961 | 34967 ft | 441 kts | 190° |
| 2026-04-22 22:41 | 41.95593 | -112.52630 | 34948 ft | 444 kts | 185° |
| 2026-04-22 22:41 | 41.89417 | -112.52684 | 34969 ft | 444 kts | 185° |
| 2026-04-22 22:42 | 41.83247 | -112.52740 | 34963 ft | 443 kts | 185° |
| 2026-04-22 22:42 | 41.77088 | -112.52803 | 34967 ft | 443 kts | 185° |
| 2026-04-22 22:43 | 41.70934 | -112.52878 | 34956 ft | 442 kts | 186° |
| 2026-04-22 22:43 | 41.64786 | -112.52946 | 34964 ft | 441 kts | 186° |
| 2026-04-22 22:44 | 41.58644 | -112.53008 | 34969 ft | 441 kts | 186° |
| 2026-04-22 22:44 | 41.52513 | -112.53059 | 34960 ft | 440 kts | 186° |
| 2026-04-22 22:45 | 41.46384 | -112.53124 | 34976 ft | 440 kts | 186° |
| 2026-04-22 22:45 | 41.40262 | -112.53193 | 34978 ft | 440 kts | 186° |
| 2026-04-22 22:46 | 41.34145 | -112.53257 | 34955 ft | 439 kts | 187° |
| 2026-04-22 22:46 | 41.28032 | -112.53317 | 34967 ft | 439 kts | 187° |
| 2026-04-22 22:47 | 41.21937 | -112.53441 | 34968 ft | 438 kts | 188° |
| 2026-04-22 22:47 | 41.15859 | -112.53707 | 34950 ft | 437 kts | 189° |
| 2026-04-22 22:48 | 41.09788 | -112.53997 | 34967 ft | 436 kts | 188° |
| 2026-04-22 22:48 | 41.03718 | -112.54244 | 34973 ft | 436 kts | 188° |
| 2026-04-22 22:49 | 40.97651 | -112.54469 | 34973 ft | 436 kts | 188° |
| 2026-04-22 22:49 | 40.91594 | -112.54700 | 34959 ft | 435 kts | 189° |
| 2026-04-22 22:50 | 40.85581 | -112.54934 | 34968 ft | 435 kts | 189° |
| 2026-04-22 22:50 | 40.79538 | -112.55163 | 34971 ft | 434 kts | 189° |
| 2026-04-22 22:51 | 40.73495 | -112.55387 | 34949 ft | 434 kts | 189° |
| 2026-04-22 22:51 | 40.67471 | -112.55621 | 34969 ft | 432 kts | 189° |
| 2026-04-22 22:52 | 40.61466 | -112.55870 | 34973 ft | 432 kts | 189° |
| 2026-04-22 22:52 | 40.55465 | -112.56101 | 34972 ft | 431 kts | 189° |
| 2026-04-22 22:53 | 40.49468 | -112.56326 | 34976 ft | 431 kts | 189° |
| 2026-04-22 22:53 | 40.43478 | -112.56549 | 34972 ft | 430 kts | 189° |
| 2026-04-22 22:54 | 40.37490 | -112.56775 | 34969 ft | 430 kts | 189° |
| 2026-04-22 22:54 | 40.31507 | -112.57007 | 34958 ft | 430 kts | 190° |
| 2026-04-22 22:55 | 40.25523 | -112.57243 | 34985 ft | 430 kts | 190° |
| 2026-04-22 22:55 | 40.16554 | -112.57584 | 34990 ft | 430 kts | 190° |
| 2026-04-22 22:56 | 40.10587 | -112.57802 | 34973 ft | 429 kts | 191° |
| 2026-04-22 22:56 | 40.04624 | -112.58027 | 34949 ft | 428 kts | 191° |
| 2026-04-22 22:57 | 39.98670 | -112.58269 | 34949 ft | 426 kts | 193° |
| 2026-04-22 22:57 | 39.95786 | -112.58849 | 34951 ft | 414 kts | 202° |
| 2026-04-22 22:57 | 39.93112 | -112.59976 | 34953 ft | 408 kts | 207° |
| 2026-04-22 22:58 | 39.87780 | -112.62466 | 34948 ft | 406 kts | 207° |
| 2026-04-22 22:58 | 39.82462 | -112.64919 | 34953 ft | 405 kts | 207° |
| 2026-04-22 22:59 | 39.77159 | -112.67370 | 34959 ft | 404 kts | 207° |
| 2026-04-22 22:59 | 39.71867 | -112.69810 | 34959 ft | 403 kts | 207° |
| 2026-04-22 23:00 | 39.66585 | -112.72241 | 34963 ft | 402 kts | 208° |
| 2026-04-22 23:00 | 39.61330 | -112.74662 | 34979 ft | 400 kts | 208° |
| 2026-04-22 23:01 | 39.56094 | -112.77068 | 34986 ft | 399 kts | 208° |
| 2026-04-22 23:01 | 39.50901 | -112.79452 | 34976 ft | 398 kts | 208° |
| 2026-04-22 23:02 | 39.45682 | -112.81851 | 34947 ft | 397 kts | 208° |
| 2026-04-22 23:02 | 39.40476 | -112.84236 | 34970 ft | 397 kts | 208° |
| 2026-04-22 23:03 | 39.35276 | -112.86608 | 34948 ft | 396 kts | 208° |
| 2026-04-22 23:03 | 39.30085 | -112.88972 | 34950 ft | 395 kts | 208° |
| 2026-04-22 23:04 | 39.24898 | -112.91341 | 34948 ft | 395 kts | 208° |
| 2026-04-22 23:04 | 39.19715 | -112.93700 | 34925 ft | 395 kts | 208° |
| 2026-04-22 23:05 | 39.14530 | -112.96045 | 34931 ft | 395 kts | 208° |
| 2026-04-22 23:05 | 39.09347 | -112.98388 | 34939 ft | 395 kts | 208° |
| 2026-04-22 23:06 | 39.04167 | -113.00725 | 34941 ft | 395 kts | 208° |
| 2026-04-22 23:06 | 38.98988 | -113.03066 | 34898 ft | 394 kts | 208° |
| 2026-04-22 23:07 | 38.93817 | -113.05409 | 34921 ft | 394 kts | 208° |
| 2026-04-22 23:07 | 38.88651 | -113.07736 | 34924 ft | 393 kts | 208° |
| 2026-04-22 23:08 | 38.83523 | -113.10037 | 34929 ft | 393 kts | 208° |
| 2026-04-22 23:08 | 38.78358 | -113.12357 | 34911 ft | 394 kts | 208° |
| 2026-04-22 23:09 | 38.73182 | -113.14679 | 34882 ft | 394 kts | 208° |
| 2026-04-22 23:09 | 38.68877 | -113.16610 | 34888 ft | 395 kts | 208° |
| 2026-04-22 23:10 | 38.63693 | -113.18931 | 34934 ft | 395 kts | 208° |
| 2026-04-22 23:10 | 38.58498 | -113.21244 | 34950 ft | 395 kts | 208° |
| 2026-04-22 23:11 | 38.53303 | -113.23552 | 34964 ft | 395 kts | 208° |
| 2026-04-22 23:11 | 38.48110 | -113.25860 | 34946 ft | 395 kts | 208° |
| 2026-04-22 23:12 | 38.42918 | -113.28159 | 34964 ft | 395 kts | 208° |
| 2026-04-22 23:12 | 38.37726 | -113.30451 | 34964 ft | 395 kts | 209° |
| 2026-04-22 23:13 | 38.32543 | -113.32745 | 34956 ft | 394 kts | 209° |
| 2026-04-22 23:13 | 38.27362 | -113.35038 | 34942 ft | 394 kts | 209° |
| 2026-04-22 23:14 | 38.22186 | -113.37329 | 34931 ft | 394 kts | 209° |
| 2026-04-22 23:14 | 38.17010 | -113.39608 | 34932 ft | 394 kts | 208° |
| 2026-04-22 23:15 | 38.11830 | -113.41884 | 34926 ft | 394 kts | 209° |
| 2026-04-22 23:15 | 38.06649 | -113.44162 | 34917 ft | 394 kts | 208° |
| 2026-04-22 23:16 | 38.01463 | -113.46438 | 34885 ft | 394 kts | 209° |
| 2026-04-22 23:16 | 37.96314 | -113.48691 | 34900 ft | 394 kts | 209° |
| 2026-04-22 23:17 | 37.90982 | -113.50576 | 34921 ft | 404 kts | 201° |
| 2026-04-22 23:17 | 37.85453 | -113.51909 | 34928 ft | 405 kts | 201° |
| 2026-04-22 23:18 | 37.79923 | -113.53236 | 34896 ft | 404 kts | 201° |
| 2026-04-22 23:18 | 37.74399 | -113.54562 | 34915 ft | 404 kts | 201° |
| 2026-04-22 23:19 | 37.68883 | -113.55888 | 34921 ft | 403 kts | 201° |
| 2026-04-22 23:19 | 37.63372 | -113.57220 | 34934 ft | 403 kts | 201° |
| 2026-04-22 23:20 | 37.57861 | -113.58549 | 34891 ft | 403 kts | 202° |
| 2026-04-22 23:20 | 37.52349 | -113.59867 | 34899 ft | 403 kts | 202° |
| 2026-04-22 23:21 | 37.46836 | -113.61182 | 34917 ft | 403 kts | 202° |
| 2026-04-22 23:21 | 37.41319 | -113.62497 | 34927 ft | 403 kts | 202° |
| 2026-04-22 23:22 | 37.35806 | -113.63806 | 34890 ft | 403 kts | 202° |
| 2026-04-22 23:22 | 37.30291 | -113.65123 | 34906 ft | 404 kts | 202° |
| 2026-04-22 23:23 | 37.24771 | -113.66445 | 34932 ft | 404 kts | 202° |
| 2026-04-22 23:23 | 37.19243 | -113.67766 | 34945 ft | 404 kts | 202° |
| 2026-04-22 23:24 | 37.13714 | -113.69068 | 34949 ft | 404 kts | 202° |
| 2026-04-22 23:24 | 37.08223 | -113.70360 | 34921 ft | 404 kts | 202° |
| 2026-04-22 23:25 | 37.02863 | -113.72106 | 34927 ft | 390 kts | 212° |
| 2026-04-22 23:25 | 36.97807 | -113.74579 | 34931 ft | 391 kts | 212° |
| 2026-04-22 23:26 | 36.92729 | -113.77043 | 34927 ft | 392 kts | 212° |
| 2026-04-22 23:26 | 36.87636 | -113.79498 | 34880 ft | 393 kts | 211° |
| 2026-04-22 23:27 | 36.82528 | -113.81969 | 34913 ft | 395 kts | 211° |
| 2026-04-22 23:27 | 36.77399 | -113.84455 | 34920 ft | 396 kts | 211° |
| 2026-04-22 23:28 | 36.72260 | -113.86932 | 34924 ft | 396 kts | 211° |
| 2026-04-22 23:28 | 36.67122 | -113.89403 | 34926 ft | 396 kts | 211° |
| 2026-04-22 23:29 | 36.62032 | -113.91981 | 34897 ft | 393 kts | 213° |
| 2026-04-22 23:29 | 36.57052 | -113.94781 | 34900 ft | 392 kts | 214° |
| 2026-04-22 23:30 | 36.52114 | -113.97591 | 34905 ft | 393 kts | 214° |
| 2026-04-22 23:30 | 36.47108 | -114.00370 | 34910 ft | 395 kts | 214° |
| 2026-04-22 23:31 | 36.42082 | -114.03119 | 34898 ft | 395 kts | 214° |
| 2026-04-22 23:31 | 36.37425 | -114.06473 | 34899 ft | 386 kts | 221° |
| 2026-04-22 23:32 | 36.32844 | -114.09998 | 34889 ft | 389 kts | 220° |
| 2026-04-22 23:32 | 36.28238 | -114.13539 | 34876 ft | 390 kts | 220° |
| 2026-04-22 23:33 | 36.23619 | -114.17072 | 34880 ft | 390 kts | 220° |
| 2026-04-22 23:33 | 36.19004 | -114.20600 | 34882 ft | 390 kts | 220° |
| 2026-04-22 23:34 | 36.14383 | -114.24125 | 34884 ft | 390 kts | 220° |
| 2026-04-22 23:34 | 36.09773 | -114.27659 | 34864 ft | 387 kts | 223° |
| 2026-04-22 23:35 | 36.05974 | -114.32145 | 34844 ft | 375 kts | 234° |
| 2026-04-22 23:35 | 36.02505 | -114.36985 | 34851 ft | 377 kts | 234° |
| 2026-04-22 23:36 | 35.99032 | -114.41790 | 34865 ft | 378 kts | 234° |
| 2026-04-22 23:36 | 35.95531 | -114.46623 | 34878 ft | 378 kts | 234° |
| 2026-04-22 23:37 | 35.92025 | -114.51454 | 34891 ft | 378 kts | 234° |
| 2026-04-22 23:37 | 35.88526 | -114.56282 | 34907 ft | 377 kts | 234° |
| 2026-04-22 23:38 | 35.85028 | -114.61103 | 34882 ft | 378 kts | 234° |
| 2026-04-22 23:38 | 35.81523 | -114.65927 | 34941 ft | 377 kts | 234° |
| 2026-04-22 23:39 | 35.78012 | -114.70740 | 34945 ft | 378 kts | 234° |
| 2026-04-22 23:39 | 35.74504 | -114.75541 | 34940 ft | 377 kts | 234° |
| 2026-04-22 23:40 | 35.70998 | -114.80349 | 34979 ft | 378 kts | 234° |
| 2026-04-22 23:40 | 35.67487 | -114.85149 | 34981 ft | 377 kts | 234° |
| 2026-04-22 23:41 | 35.63982 | -114.89953 | 34981 ft | 377 kts | 234° |
| 2026-04-22 23:41 | 35.60476 | -114.94761 | 34985 ft | 377 kts | 234° |
| 2026-04-22 23:42 | 35.56963 | -114.99551 | 34974 ft | 378 kts | 234° |
| 2026-04-22 23:42 | 35.53466 | -115.04307 | 35000 ft | 378 kts | 234° |
| 2026-04-22 23:43 | 35.49945 | -115.09086 | 34999 ft | 377 kts | 234° |
| 2026-04-22 23:43 | 35.46368 | -115.13802 | 35002 ft | 378 kts | 233° |
| 2026-04-22 23:44 | 35.42760 | -115.18487 | 34989 ft | 378 kts | 233° |
| 2026-04-22 23:44 | 35.39146 | -115.23185 | 34986 ft | 379 kts | 233° |
| 2026-04-22 23:45 | 35.35532 | -115.27898 | 35013 ft | 380 kts | 233° |
| 2026-04-22 23:45 | 35.31906 | -115.32610 | 35011 ft | 380 kts | 233° |
| 2026-04-22 23:46 | 35.28273 | -115.37322 | 34996 ft | 381 kts | 233° |
| 2026-04-22 23:46 | 35.24640 | -115.42039 | 35018 ft | 381 kts | 233° |
| 2026-04-22 23:47 | 35.20998 | -115.46760 | 35022 ft | 382 kts | 233° |
| 2026-04-22 23:47 | 35.17349 | -115.51482 | 35019 ft | 382 kts | 233° |
| 2026-04-22 23:48 | 35.13717 | -115.56169 | 35033 ft | 382 kts | 233° |
| 2026-04-22 23:48 | 35.10055 | -115.60882 | 35006 ft | 383 kts | 233° |
| 2026-04-22 23:49 | 35.06376 | -115.65590 | 34993 ft | 384 kts | 233° |
| 2026-04-22 23:49 | 35.02682 | -115.70303 | 35008 ft | 385 kts | 233° |
| 2026-04-22 23:50 | 34.98974 | -115.75028 | 35014 ft | 386 kts | 233° |
| 2026-04-22 23:50 | 34.95262 | -115.79757 | 35011 ft | 386 kts | 233° |
| 2026-04-22 23:51 | 34.91545 | -115.84492 | 35012 ft | 387 kts | 233° |
| 2026-04-22 23:51 | 34.87818 | -115.89212 | 35005 ft | 387 kts | 233° |
| 2026-04-22 23:52 | 34.84093 | -115.93940 | 35008 ft | 386 kts | 233° |
| 2026-04-22 23:52 | 34.80375 | -115.98664 | 34977 ft | 386 kts | 233° |
| 2026-04-22 23:53 | 34.76654 | -116.03379 | 34985 ft | 386 kts | 233° |
| 2026-04-22 23:53 | 34.72941 | -116.08096 | 34996 ft | 386 kts | 233° |
| 2026-04-22 23:54 | 34.69263 | -116.12784 | 35001 ft | 386 kts | 233° |
| 2026-04-22 23:54 | 34.65560 | -116.17501 | 35007 ft | 386 kts | 233° |
| 2026-04-22 23:55 | 34.61856 | -116.22205 | 35008 ft | 386 kts | 233° |
| 2026-04-22 23:55 | 34.59996 | -116.24562 | 34791 ft | 386 kts | 233° |
| 2026-04-22 23:55 | 34.58139 | -116.26912 | 34555 ft | 386 kts | 233° |
| 2026-04-22 23:56 | 34.56283 | -116.29260 | 34317 ft | 386 kts | 232° |
| 2026-04-22 23:56 | 34.54421 | -116.31616 | 34084 ft | 387 kts | 232° |
| 2026-04-22 23:56 | 34.52555 | -116.33978 | 33830 ft | 389 kts | 232° |
| 2026-04-22 23:56 | 34.50683 | -116.36348 | 33562 ft | 390 kts | 232° |
| 2026-04-22 23:57 | 34.48800 | -116.38726 | 33292 ft | 391 kts | 232° |
| 2026-04-22 23:57 | 34.46909 | -116.41112 | 32995 ft | 393 kts | 232° |
| 2026-04-22 23:57 | 34.45012 | -116.43507 | 32726 ft | 395 kts | 232° |
| 2026-04-22 23:57 | 34.43106 | -116.45916 | 32477 ft | 397 kts | 233° |
| 2026-04-22 23:58 | 34.41421 | -116.48534 | 32226 ft | 392 kts | 242° |
| 2026-04-22 23:58 | 34.40145 | -116.51433 | 31976 ft | 391 kts | 247° |
| 2026-04-22 23:58 | 34.38938 | -116.54387 | 31720 ft | 392 kts | 247° |
| 2026-04-22 23:58 | 34.37721 | -116.57355 | 31381 ft | 393 kts | 247° |
| 2026-04-22 23:59 | 34.36496 | -116.60333 | 30382 ft | 398 kts | 247° |
| 2026-04-22 23:59 | 34.35259 | -116.63332 | 29596 ft | 397 kts | 247° |
| 2026-04-22 23:59 | 34.34034 | -116.66291 | 29073 ft | 388 kts | 247° |
| 2026-04-22 23:59 | 34.32841 | -116.69174 | 28763 ft | 379 kts | 247° |
| 2026-04-23 00:00 | 34.30571 | -116.74787 | 27807 ft | 370 kts | 248° |
| 2026-04-23 00:00 | 34.29818 | -116.76672 | 27469 ft | 367 kts | 248° |
| 2026-04-23 00:00 | 34.28357 | -116.80336 | 26772 ft | 363 kts | 248° |
| 2026-04-23 00:01 | 34.27619 | -116.82183 | 26417 ft | 361 kts | 248° |
| 2026-04-23 00:01 | 34.26176 | -116.85782 | 25728 ft | 357 kts | 248° |
| 2026-04-23 00:01 | 34.25442 | -116.87603 | 25401 ft | 355 kts | 248° |
| 2026-04-23 00:01 | 34.24012 | -116.91142 | 24723 ft | 352 kts | 247° |
| 2026-04-23 00:02 | 34.22938 | -116.93791 | 24221 ft | 350 kts | 247° |
| 2026-04-23 00:02 | 34.21872 | -116.96421 | 23719 ft | 348 kts | 247° |
| 2026-04-23 00:02 | 34.21177 | -116.98201 | 23331 ft | 345 kts | 251° |
| 2026-04-23 00:02 | 34.20408 | -117.00926 | 22837 ft | 342 kts | 254° |
| 2026-04-23 00:03 | 34.19677 | -117.03651 | 22344 ft | 341 kts | 254° |
| 2026-04-23 00:03 | 34.18946 | -117.06357 | 21857 ft | 338 kts | 254° |
| 2026-04-23 00:03 | 34.18216 | -117.09045 | 21376 ft | 336 kts | 254° |
| 2026-04-23 00:03 | 34.17488 | -117.11715 | 20893 ft | 334 kts | 254° |
| 2026-04-23 00:04 | 34.16774 | -117.14329 | 20473 ft | 321 kts | 254° |
| 2026-04-23 00:04 | 34.16081 | -117.16858 | 19973 ft | 317 kts | 254° |
| 2026-04-23 00:04 | 34.15388 | -117.19391 | 19528 ft | 317 kts | 255° |
| 2026-04-23 00:04 | 34.14700 | -117.21904 | 19088 ft | 315 kts | 254° |
| 2026-04-23 00:05 | 34.14013 | -117.24409 | 18638 ft | 314 kts | 255° |
| 2026-04-23 00:05 | 34.13338 | -117.26872 | 18162 ft | 313 kts | 255° |
| 2026-04-23 00:05 | 34.12653 | -117.29363 | 17690 ft | 311 kts | 254° |
| 2026-04-23 00:05 | 34.11970 | -117.31830 | 17240 ft | 309 kts | 254° |
| 2026-04-23 00:06 | 34.11291 | -117.34280 | 16796 ft | 307 kts | 254° |
| 2026-04-23 00:06 | 34.10614 | -117.36717 | 16354 ft | 305 kts | 254° |
| 2026-04-23 00:06 | 34.09962 | -117.39150 | 15914 ft | 304 kts | 255° |
| 2026-04-23 00:06 | 34.09352 | -117.41563 | 15479 ft | 303 kts | 256° |
| 2026-04-23 00:07 | 34.08747 | -117.44013 | 15040 ft | 302 kts | 256° |
| 2026-04-23 00:07 | 34.08151 | -117.46443 | 14604 ft | 302 kts | 256° |
| 2026-04-23 00:07 | 34.07553 | -117.48866 | 14168 ft | 301 kts | 256° |
| 2026-04-23 00:07 | 34.06951 | -117.51288 | 13684 ft | 302 kts | 256° |
| 2026-04-23 00:08 | 34.06339 | -117.53711 | 13164 ft | 302 kts | 255° |
| 2026-04-23 00:08 | 34.05723 | -117.56131 | 12718 ft | 300 kts | 255° |
| 2026-04-23 00:08 | 34.05107 | -117.58541 | 12190 ft | 301 kts | 255° |
| 2026-04-23 00:08 | 34.04489 | -117.60947 | 11711 ft | 301 kts | 255° |
| 2026-04-23 00:09 | 34.03870 | -117.63352 | 11270 ft | 299 kts | 255° |
| 2026-04-23 00:09 | 34.03253 | -117.65751 | 10809 ft | 298 kts | 255° |
| 2026-04-23 00:09 | 34.02637 | -117.68143 | 10355 ft | 296 kts | 255° |
| 2026-04-23 00:09 | 34.02136 | -117.70456 | 10083 ft | 278 kts | 263° |
| 2026-04-23 00:10 | 34.01921 | -117.72745 | 9822 ft | 272 kts | 265° |
| 2026-04-23 00:10 | 34.01708 | -117.74994 | 9693 ft | 270 kts | 264° |
| 2026-04-23 00:10 | 34.01491 | -117.77242 | 9461 ft | 270 kts | 264° |
| 2026-04-23 00:10 | 34.01276 | -117.79457 | 9124 ft | 260 kts | 264° |
| 2026-04-23 00:11 | 34.01068 | -117.81568 | 8800 ft | 247 kts | 264° |
| 2026-04-23 00:11 | 34.00869 | -117.83574 | 8476 ft | 235 kts | 264° |
| 2026-04-23 00:11 | 34.00679 | -117.85485 | 8180 ft | 226 kts | 264° |
| 2026-04-23 00:11 | 34.00494 | -117.87359 | 7886 ft | 225 kts | 265° |
| 2026-04-23 00:12 | 34.00312 | -117.89219 | 7591 ft | 223 kts | 265° |
| 2026-04-23 00:12 | 34.00132 | -117.91076 | 7297 ft | 222 kts | 265° |
| 2026-04-23 00:12 | 33.99952 | -117.92915 | 7007 ft | 221 kts | 265° |
| 2026-04-23 00:12 | 33.99768 | -117.94765 | 6714 ft | 223 kts | 264° |
| 2026-04-23 00:13 | 33.99578 | -117.96637 | 6412 ft | 226 kts | 264° |
| 2026-04-23 00:13 | 33.99391 | -117.98513 | 6103 ft | 225 kts | 264° |
| 2026-04-23 00:13 | 33.99206 | -118.00382 | 5801 ft | 224 kts | 264° |
| 2026-04-23 00:13 | 33.99023 | -118.02239 | 5507 ft | 222 kts | 264° |
| 2026-04-23 00:14 | 33.98840 | -118.04087 | 5217 ft | 222 kts | 265° |
| 2026-04-23 00:14 | 33.98660 | -118.05908 | 4925 ft | 222 kts | 264° |
| 2026-04-23 00:14 | 33.98476 | -118.07757 | 4591 ft | 223 kts | 264° |
| 2026-04-23 00:14 | 33.98292 | -118.09609 | 4272 ft | 222 kts | 264° |
| 2026-04-23 00:15 | 33.98109 | -118.11451 | 4026 ft | 218 kts | 264° |
| 2026-04-23 00:15 | 33.97933 | -118.13210 | 3995 ft | 204 kts | 264° |
| 2026-04-23 00:15 | 33.97767 | -118.14870 | 3998 ft | 198 kts | 264° |
| 2026-04-23 00:15 | 33.97602 | -118.16519 | 3930 ft | 199 kts | 263° |
| 2026-04-23 00:16 | 33.97437 | -118.18167 | 3720 ft | 197 kts | 263° |
| 2026-04-23 00:16 | 33.97273 | -118.19801 | 3479 ft | 196 kts | 263° |
| 2026-04-23 00:16 | 33.97110 | -118.21425 | 3220 ft | 194 kts | 263° |
| 2026-04-23 00:16 | 33.96948 | -118.23038 | 2958 ft | 194 kts | 263° |
| 2026-04-23 00:17 | 33.96786 | -118.24644 | 2699 ft | 192 kts | 263° |
| 2026-04-23 00:17 | 33.96627 | -118.26224 | 2443 ft | 186 kts | 263° |
| 2026-04-23 00:17 | 33.96476 | -118.27722 | 2227 ft | 173 kts | 262° |
| 2026-04-23 00:17 | 33.96335 | -118.29120 | 1973 ft | 166 kts | 263° |
| 2026-04-23 00:18 | 33.96197 | -118.30483 | 1766 ft | 157 kts | 262° |
| 2026-04-23 00:18 | 33.96072 | -118.31722 | 1553 ft | 140 kts | 262° |
| 2026-04-23 00:18 | 33.95958 | -118.32846 | 1374 ft | 131 kts | 262° |
| 2026-04-23 00:18 | 33.95848 | -118.33925 | 1194 ft | 130 kts | 262° |
| 2026-04-23 00:19 | 33.95738 | -118.35011 | 1023 ft | 130 kts | 262° |
| 2026-04-23 00:19 | 33.95629 | -118.36080 | 839 ft | 128 kts | 263° |
| 2026-04-23 00:19 | 33.95519 | -118.37156 | 671 ft | 129 kts | 262° |
| 2026-04-23 00:19 | 33.95412 | -118.38207 | 491 ft | 128 kts | 263° |
| 2026-04-23 00:20 | 33.95303 | -118.39283 | 328 ft | 130 kts | 263° |
| 2026-04-23 00:20 | 33.95196 | -118.40342 | 172 ft | 128 kts | 261° |
| 2026-04-23 00:20 | 33.95095 | -118.41376 | 108 ft | 113 kts | 260° |
| 2026-04-23 00:20 | 33.95013 | -118.42122 | 108 ft | 68 kts | 262° |
| 2026-04-23 00:21 | 33.94965 | -118.42575 | 107 ft | 35 kts | 263° |
| 2026-04-23 00:21 | 33.94939 | -118.42840 | 108 ft | 28 kts | 262° |
| 2026-04-23 00:21 | 33.94923 | -118.43004 | 107 ft | 13 kts | 264° |
| 2026-04-23 00:21 | 33.94884 | -118.43098 | 108 ft | 14 kts | 197° |
| 2026-04-23 00:22 | 33.94772 | -118.43085 | 107 ft | 16 kts | 173° |
| 2026-04-23 00:22 | 33.94673 | -118.43030 | 107 ft | 18 kts | 129° |
| 2026-04-23 00:22 | 33.94614 | -118.42909 | 99 ft | 16 kts | 91° |
| 2026-04-23 00:22 | 33.94624 | -118.42779 | 99 ft | 15 kts | 85° |
| 2026-04-23 00:23 | 33.94639 | -118.42662 | 100 ft | 14 kts | 82° |
| 2026-04-23 00:23 | 33.94650 | -118.42554 | 99 ft | 12 kts | 83° |
| 2026-04-23 00:23 | 33.94661 | -118.42454 | 101 ft | 12 kts | 83° |
| 2026-04-23 00:23 | 33.94669 | -118.42362 | 99 ft | 11 kts | 83° |
| 2026-04-23 00:24 | 33.94679 | -118.42264 | 98 ft | 18 kts | 83° |
| 2026-04-23 00:24 | 33.94695 | -118.42106 | 98 ft | 19 kts | 83° |
| 2026-04-23 00:24 | 33.94711 | -118.41957 | 98 ft | 17 kts | 83° |
| 2026-04-23 00:24 | 33.94724 | -118.41817 | 98 ft | 16 kts | 83° |
| 2026-04-23 00:25 | 33.94737 | -118.41685 | 98 ft | 15 kts | 83° |
| 2026-04-23 00:25 | 33.94749 | -118.41565 | 99 ft | 14 kts | 83° |
| 2026-04-23 00:25 | 33.94761 | -118.41459 | 101 ft | 12 kts | 82° |
| 2026-04-23 00:25 | 33.94781 | -118.41369 | 100 ft | 12 kts | 76° |
| 2026-04-23 00:26 | 33.94796 | -118.41246 | 100 ft | 18 kts | 83° |
| 2026-04-23 00:26 | 33.94811 | -118.41093 | 100 ft | 18 kts | 83° |
| 2026-04-23 00:26 | 33.94826 | -118.40951 | 100 ft | 17 kts | 82° |
| 2026-04-23 00:26 | 33.94840 | -118.40817 | 100 ft | 16 kts | 83° |
| 2026-04-23 00:27 | 33.94853 | -118.40691 | 100 ft | 15 kts | 83° |
| 2026-04-23 00:27 | 33.94837 | -118.40606 | 99 ft | 11 kts | 147° |
| 2026-04-23 00:27 | 33.94752 | -118.40580 | 96 ft | 15 kts | 171° |
| 2026-04-23 00:27 | 33.94674 | -118.40564 | 97 ft | 8 kts | 146° |
| 2026-04-23 00:28 | 33.94656 | -118.40507 | 96 ft | 7 kts | 96° |
| 2026-04-23 00:28 | 33.94654 | -118.40485 | 95 ft | 3 kts | 96° |